sensor_id;sensor_type;location;lat;lon;timestamp;pressure;altitude;pressure_sealevel;temperature;humidity
29825;BME280;16713;52.916;12.834;2023-05-23T00:01:00;100676.69;;;16.73;61.33
29825;BME280;16713;52.916;12.834;2023-05-23T00:03:27;100678.69;;;16.62;60.54
29825;BME280;16713;52.916;12.834;2023-05-23T00:05:56;100667.22;;;16.57;60.29
29825;BME280;16713;52.916;12.834;2023-05-23T00:08:24;100671.16;;;16.49;60.86
29825;BME280;16713;52.916;12.834;2023-05-23T00:10:51;100664.44;;;16.39;60.47
29825;BME280;16713;52.916;12.834;2023-05-23T00:13:17;100661.66;;;16.36;61.62
29825;BME280;16713;52.916;12.834;2023-05-23T00:15:44;100662.03;;;16.20;61.19
29825;BME280;16713;52.916;12.834;2023-05-23T00:18:11;100660.03;;;16.10;62.79
29825;BME280;16713;52.916;12.834;2023-05-23T00:20:40;100651.72;;;15.96;62.35
29825;BME280;16713;52.916;12.834;2023-05-23T00:23:11;100656.81;;;15.90;63.04
29825;BME280;16713;52.916;12.834;2023-05-23T00:25:44;100659.19;;;15.81;63.60
29825;BME280;16713;52.916;12.834;2023-05-23T00:28:18;100653.63;;;15.74;63.89
29825;BME280;16713;52.916;12.834;2023-05-23T00:30:45;100652.00;;;15.66;63.10
29825;BME280;16713;52.916;12.834;2023-05-23T00:33:12;100639.34;;;15.55;62.79
29825;BME280;16713;52.916;12.834;2023-05-23T00:35:40;100642.88;;;15.48;63.23
29825;BME280;16713;52.916;12.834;2023-05-23T00:38:08;100644.81;;;15.44;63.84
29825;BME280;16713;52.916;12.834;2023-05-23T00:40:34;100648.72;;;15.36;63.54
29825;BME280;16713;52.916;12.834;2023-05-23T00:43:01;100648.66;;;15.29;65.00
29825;BME280;16713;52.916;12.834;2023-05-23T00:45:27;100644.69;;;15.20;64.20
29825;BME280;16713;52.916;12.834;2023-05-23T00:47:54;100641.91;;;15.16;63.71
29825;BME280;16713;52.916;12.834;2023-05-23T00:50:21;100637.13;;;15.06;64.01
29825;BME280;16713;52.916;12.834;2023-05-23T00:52:48;100632.31;;;14.96;65.41
29825;BME280;16713;52.916;12.834;2023-05-23T00:55:14;100627.56;;;14.93;64.09
29825;BME280;16713;52.916;12.834;2023-05-23T00:57:42;100620.81;;;14.84;65.20
29825;BME280;16713;52.916;12.834;2023-05-23T01:00:13;100623.16;;;14.82;63.60
29825;BME280;16713;52.916;12.834;2023-05-23T01:02:45;100618.38;;;14.75;65.06
29825;BME280;16713;52.916;12.834;2023-05-23T01:05:14;100626.22;;;14.66;65.36
29825;BME280;16713;52.916;12.834;2023-05-23T01:07:47;100618.75;;;14.66;63.95
29825;BME280;16713;52.916;12.834;2023-05-23T01:10:16;100619.53;;;14.67;65.08
29825;BME280;16713;52.916;12.834;2023-05-23T01:15:36;100604.94;;;14.70;65.87
29825;BME280;16713;52.916;12.834;2023-05-23T01:18:09;100608.97;;;14.83;63.50
29825;BME280;16713;52.916;12.834;2023-05-23T01:20:47;100615.31;;;14.87;64.24
29825;BME280;16713;52.916;12.834;2023-05-23T01:23:22;100613.78;;;14.93;64.79
29825;BME280;16713;52.916;12.834;2023-05-23T01:26:08;100612.59;;;14.94;66.04
29825;BME280;16713;52.916;12.834;2023-05-23T01:28:46;100613.44;;;15.09;63.32
29825;BME280;16713;52.916;12.834;2023-05-23T01:31:15;100612.25;;;15.06;65.22
29825;BME280;16713;52.916;12.834;2023-05-23T01:33:42;100613.16;;;15.24;61.54
29825;BME280;16713;52.916;12.834;2023-05-23T01:36:12;100611.59;;;15.37;60.81
29825;BME280;16713;52.916;12.834;2023-05-23T01:38:39;100613.22;;;15.42;61.59
29825;BME280;16713;52.916;12.834;2023-05-23T01:41:06;100611.66;;;15.48;62.54
29825;BME280;16713;52.916;12.834;2023-05-23T01:43:32;100612.81;;;15.43;63.28
29825;BME280;16713;52.916;12.834;2023-05-23T01:45:59;100617.63;;;15.50;63.25
29825;BME280;16713;52.916;12.834;2023-05-23T01:48:27;100610.94;;;15.58;61.85
29825;BME280;16713;52.916;12.834;2023-05-23T01:50:54;100605.03;;;15.73;60.82
29825;BME280;16713;52.916;12.834;2023-05-23T01:53:23;100609.81;;;15.87;57.80
29825;BME280;16713;52.916;12.834;2023-05-23T01:55:51;100605.47;;;16.10;56.73
29825;BME280;16713;52.916;12.834;2023-05-23T01:58:18;100611.00;;;16.25;56.68
29825;BME280;16713;52.916;12.834;2023-05-23T02:00:44;100609.06;;;16.29;58.44
29825;BME280;16713;52.916;12.834;2023-05-23T02:03:11;100610.63;;;16.33;57.48
29825;BME280;16713;52.916;12.834;2023-05-23T02:05:38;100614.22;;;16.44;56.41
29825;BME280;16713;52.916;12.834;2023-05-23T02:08:05;100615.00;;;16.52;55.59
29825;BME280;16713;52.916;12.834;2023-05-23T02:10:31;100608.66;;;16.55;56.33
29825;BME280;16713;52.916;12.834;2023-05-23T02:12:58;100620.53;;;16.62;55.80
29825;BME280;16713;52.916;12.834;2023-05-23T02:15:24;100615.41;;;16.61;56.16
29825;BME280;16713;52.916;12.834;2023-05-23T02:17:51;100615.75;;;16.63;57.49
29825;BME280;16713;52.916;12.834;2023-05-23T02:20:17;100618.16;;;16.54;57.24
29825;BME280;16713;52.916;12.834;2023-05-23T02:22:44;100618.56;;;16.49;58.78
29825;BME280;16713;52.916;12.834;2023-05-23T02:25:11;100611.84;;;16.43;59.20
29825;BME280;16713;52.916;12.834;2023-05-23T02:27:37;100624.50;;;16.37;59.49
29825;BME280;16713;52.916;12.834;2023-05-23T02:30:04;100622.50;;;16.30;61.17
29825;BME280;16713;52.916;12.834;2023-05-23T02:32:31;100621.28;;;16.28;60.56
29825;BME280;16713;52.916;12.834;2023-05-23T02:34:57;100613.38;;;16.23;61.09
29825;BME280;16713;52.916;12.834;2023-05-23T02:37:24;100617.72;;;16.17;61.95
29825;BME280;16713;52.916;12.834;2023-05-23T02:39:51;100610.63;;;16.16;61.61
29825;BME280;16713;52.916;12.834;2023-05-23T02:42:17;100611.41;;;16.09;61.86
29825;BME280;16713;52.916;12.834;2023-05-23T02:44:44;100611.41;;;16.02;63.00
29825;BME280;16713;52.916;12.834;2023-05-23T02:47:10;100616.53;;;16.03;60.71
29825;BME280;16713;52.916;12.834;2023-05-23T02:49:37;100616.16;;;15.98;62.13
29825;BME280;16713;52.916;12.834;2023-05-23T02:52:04;100610.59;;;15.94;62.87
29825;BME280;16713;52.916;12.834;2023-05-23T02:54:30;100609.41;;;15.88;64.17
29825;BME280;16713;52.916;12.834;2023-05-23T02:56:57;100611.41;;;15.91;62.12
29825;BME280;16713;52.916;12.834;2023-05-23T02:59:24;100611.38;;;15.98;60.70
29825;BME280;16713;52.916;12.834;2023-05-23T03:01:52;100598.75;;;16.01;60.19
29825;BME280;16713;52.916;12.834;2023-05-23T03:04:18;100604.28;;;16.01;61.65
29825;BME280;16713;52.916;12.834;2023-05-23T03:06:45;100606.25;;;16.00;63.48
29825;BME280;16713;52.916;12.834;2023-05-23T03:09:13;100606.25;;;15.97;64.82
29825;BME280;16713;52.916;12.834;2023-05-23T03:11:40;100600.34;;;15.91;66.38
29825;BME280;16713;52.916;12.834;2023-05-23T03:14:07;100594.00;;;15.87;65.37
29825;BME280;16713;52.916;12.834;2023-05-23T03:16:33;100597.16;;;15.89;64.28
29825;BME280;16713;52.916;12.834;2023-05-23T03:19:00;100592.03;;;15.88;62.88
29825;BME280;16713;52.916;12.834;2023-05-23T03:21:26;100583.31;;;15.89;62.61
29825;BME280;16713;52.916;12.834;2023-05-23T03:23:53;100588.84;;;15.89;62.10
29825;BME280;16713;52.916;12.834;2023-05-23T03:26:19;100585.28;;;15.89;63.04
29825;BME280;16713;52.916;12.834;2023-05-23T03:28:48;100589.66;;;15.86;64.36
29825;BME280;16713;52.916;12.834;2023-05-23T03:31:14;100585.28;;;15.89;61.20
29825;BME280;16713;52.916;12.834;2023-05-23T03:33:41;100581.72;;;15.92;62.05
29825;BME280;16713;52.916;12.834;2023-05-23T03:36:08;100584.53;;;15.88;61.70
29825;BME280;16713;52.916;12.834;2023-05-23T03:38:34;100581.72;;;15.92;61.12
29825;BME280;16713;52.916;12.834;2023-05-23T03:41:01;100584.91;;;15.94;61.46
29825;BME280;16713;52.916;12.834;2023-05-23T03:43:27;100582.53;;;15.92;61.00
29825;BME280;16713;52.916;12.834;2023-05-23T03:45:54;100585.72;;;15.98;61.33
29825;BME280;16713;52.916;12.834;2023-05-23T03:48:20;100583.34;;;15.93;60.08
29825;BME280;16713;52.916;12.834;2023-05-23T03:50:47;100583.72;;;16.02;60.10
29825;BME280;16713;52.916;12.834;2023-05-23T03:53:14;100596.38;;;16.06;59.48
29825;BME280;16713;52.916;12.834;2023-05-23T03:55:41;100597.97;;;16.14;60.10
29825;BME280;16713;52.916;12.834;2023-05-23T03:58:08;100593.25;;;16.22;60.59
29825;BME280;16713;52.916;12.834;2023-05-23T04:00:34;100593.63;;;16.28;59.69
29825;BME280;16713;52.916;12.834;2023-05-23T04:03:01;100587.28;;;16.31;59.97
29825;BME280;16713;52.916;12.834;2023-05-23T04:05:28;100609.44;;;16.31;60.07
29825;BME280;16713;52.916;12.834;2023-05-23T04:07:54;100604.69;;;16.31;60.25
29825;BME280;16713;52.916;12.834;2023-05-23T04:10:22;100599.19;;;16.35;61.17
29825;BME280;16713;52.916;12.834;2023-05-23T04:12:48;100606.31;;;16.43;61.09
29825;BME280;16713;52.916;12.834;2023-05-23T04:15:16;100607.47;;;16.52;59.91
29825;BME280;16713;52.916;12.834;2023-05-23T04:17:43;100606.28;;;16.57;60.92
29825;BME280;16713;52.916;12.834;2023-05-23T04:20:10;100610.25;;;16.52;60.94
29825;BME280;16713;52.916;12.834;2023-05-23T04:22:38;100612.63;;;16.54;60.75
29825;BME280;16713;52.916;12.834;2023-05-23T04:25:05;100600.75;;;16.50;60.70
29825;BME280;16713;52.916;12.834;2023-05-23T04:27:32;100601.16;;;16.45;62.13
29825;BME280;16713;52.916;12.834;2023-05-23T04:29:59;100602.34;;;16.51;60.92
29825;BME280;16713;52.916;12.834;2023-05-23T04:32:26;100597.59;;;16.48;61.57
29825;BME280;16713;52.916;12.834;2023-05-23T04:34:53;100599.19;;;16.52;60.88
29825;BME280;16713;52.916;12.834;2023-05-23T04:37:19;100595.59;;;16.48;62.88
29825;BME280;16713;52.916;12.834;2023-05-23T04:39:51;100597.19;;;16.46;62.85
29825;BME280;16713;52.916;12.834;2023-05-23T04:42:18;100590.09;;;16.45;63.35
29825;BME280;16713;52.916;12.834;2023-05-23T04:44:50;100594.44;;;16.42;65.41
29825;BME280;16713;52.916;12.834;2023-05-23T04:47:18;100586.91;;;16.39;64.39
29825;BME280;16713;52.916;12.834;2023-05-23T04:49:44;100592.84;;;16.38;65.00
29825;BME280;16713;52.916;12.834;2023-05-23T04:52:11;100588.50;;;16.40;63.98
29825;BME280;16713;52.916;12.834;2023-05-23T04:54:38;100584.56;;;16.41;63.85
29825;BME280;16713;52.916;12.834;2023-05-23T04:57:09;100587.72;;;16.43;64.00
29825;BME280;16713;52.916;12.834;2023-05-23T04:59:37;100593.63;;;16.45;65.45
29825;BME280;16713;52.916;12.834;2023-05-23T05:02:04;100590.06;;;16.48;65.44
29825;BME280;16713;52.916;12.834;2023-05-23T05:04:31;100587.28;;;16.48;63.24
29825;BME280;16713;52.916;12.834;2023-05-23T05:06:58;100580.19;;;16.51;63.80
29825;BME280;16713;52.916;12.834;2023-05-23T05:09:24;100579.41;;;16.50;63.78
29825;BME280;16713;52.916;12.834;2023-05-23T05:11:51;100569.91;;;16.51;63.67
29825;BME280;16713;52.916;12.834;2023-05-23T05:14:17;100574.66;;;16.54;65.56
29825;BME280;16713;52.916;12.834;2023-05-23T05:16:44;100573.44;;;16.55;66.40
29825;BME280;16713;52.916;12.834;2023-05-23T05:19:11;100581.75;;;16.59;65.99
29825;BME280;16713;52.916;12.834;2023-05-23T05:21:37;100569.88;;;16.62;65.02
29825;BME280;16713;52.916;12.834;2023-05-23T05:24:04;100568.72;;;16.56;64.37
29825;BME280;16713;52.916;12.834;2023-05-23T05:26:30;100569.88;;;16.69;62.59
29825;BME280;16713;52.916;12.834;2023-05-23T05:28:57;100565.94;;;16.56;62.26
29825;BME280;16713;52.916;12.834;2023-05-23T05:31:23;100577.75;;;16.74;62.87
29825;BME280;16713;52.916;12.834;2023-05-23T05:33:50;100581.69;;;16.87;63.12
29825;BME280;16713;52.916;12.834;2023-05-23T05:36:18;100591.59;;;16.88;63.79
29825;BME280;16713;52.916;12.834;2023-05-23T05:38:45;100593.56;;;16.87;63.58
29825;BME280;16713;52.916;12.834;2023-05-23T05:41:12;100592.75;;;17.01;63.87
29825;BME280;16713;52.916;12.834;2023-05-23T05:43:38;100587.19;;;17.01;63.47
29825;BME280;16713;52.916;12.834;2023-05-23T05:46:05;100583.22;;;16.98;62.06
29825;BME280;16713;52.916;12.834;2023-05-23T05:48:31;100591.53;;;17.09;61.79
29825;BME280;16713;52.916;12.834;2023-05-23T05:50:58;100598.22;;;17.22;60.71
29825;BME280;16713;52.916;12.834;2023-05-23T05:53:26;100598.59;;;17.31;60.29
29825;BME280;16713;52.916;12.834;2023-05-23T05:55:53;100596.22;;;17.29;59.91
29825;BME280;16713;52.916;12.834;2023-05-23T05:58:19;100601.28;;;17.48;59.83
29825;BME280;16713;52.916;12.834;2023-05-23T06:00:47;100601.59;;;17.61;60.21
29825;BME280;16713;52.916;12.834;2023-05-23T06:03:14;100603.53;;;17.68;59.45
29825;BME280;16713;52.916;12.834;2023-05-23T06:05:41;100591.69;;;17.64;59.66
29825;BME280;16713;52.916;12.834;2023-05-23T06:08:07;100605.09;;;17.72;59.83
29825;BME280;16713;52.916;12.834;2023-05-23T06:10:37;100600.66;;;17.85;59.10
29825;BME280;16713;52.916;12.834;2023-05-23T06:13:04;100598.69;;;17.82;59.88
29825;BME280;16713;52.916;12.834;2023-05-23T06:15:31;100605.75;;;17.94;59.60
29825;BME280;16713;52.916;12.834;2023-05-23T06:17:57;100605.72;;;18.01;59.05
29825;BME280;16713;52.916;12.834;2023-05-23T06:20:24;100604.13;;;18.03;59.25
29825;BME280;16713;52.916;12.834;2023-05-23T06:22:51;100611.25;;;18.08;58.74
29825;BME280;16713;52.916;12.834;2023-05-23T06:25:17;100615.56;;;18.12;58.62
29825;BME280;16713;52.916;12.834;2023-05-23T06:27:44;100621.09;;;18.16;59.51
29825;BME280;16713;52.916;12.834;2023-05-23T06:30:11;100627.81;;;18.18;58.49
29825;BME280;16713;52.916;12.834;2023-05-23T06:32:39;100634.97;;;18.16;58.57
29825;BME280;16713;52.916;12.834;2023-05-23T06:35:06;100626.22;;;18.17;59.21
29825;BME280;16713;52.916;12.834;2023-05-23T06:37:33;100629.38;;;18.23;59.12
29825;BME280;16713;52.916;12.834;2023-05-23T06:40:00;100623.41;;;18.24;59.09
29825;BME280;16713;52.916;12.834;2023-05-23T06:42:27;100630.94;;;18.27;59.50
29825;BME280;16713;52.916;12.834;2023-05-23T06:44:53;100630.81;;;18.38;58.31
29825;BME280;16713;52.916;12.834;2023-05-23T06:47:20;100626.81;;;18.42;59.72
29825;BME280;16713;52.916;12.834;2023-05-23T06:49:46;100627.63;;;18.43;59.17
29825;BME280;16713;52.916;12.834;2023-05-23T06:52:13;100626.47;;;18.40;60.81
29825;BME280;16713;52.916;12.834;2023-05-23T06:54:39;100637.44;;;18.54;60.83
29825;BME280;16713;52.916;12.834;2023-05-23T06:57:06;100640.56;;;18.60;60.71
29825;BME280;16713;52.916;12.834;2023-05-23T06:59:32;100633.78;;;18.64;61.03
29825;BME280;16713;52.916;12.834;2023-05-23T07:01:59;100638.91;;;18.69;61.14
29825;BME280;16713;52.916;12.834;2023-05-23T07:04:25;100623.50;;;18.61;60.98
29825;BME280;16713;52.916;12.834;2023-05-23T07:06:52;100627.84;;;18.62;61.46
29825;BME280;16713;52.916;12.834;2023-05-23T07:09:19;100628.97;;;18.72;61.01
29825;BME280;16713;52.916;12.834;2023-05-23T07:11:45;100619.03;;;18.71;62.38
29825;BME280;16713;52.916;12.834;2023-05-23T07:14:12;100613.94;;;18.62;62.03
29825;BME280;16713;52.916;12.834;2023-05-23T07:16:38;100622.53;;;18.82;60.73
29825;BME280;16713;52.916;12.834;2023-05-23T07:19:05;100606.75;;;18.68;61.33
29825;BME280;16713;52.916;12.834;2023-05-23T07:21:31;100618.53;;;18.83;61.04
29825;BME280;16713;52.916;12.834;2023-05-23T07:23:58;100601.63;;;18.63;60.98
29825;BME280;16713;52.916;12.834;2023-05-23T07:26:24;100605.91;;;18.71;61.17
29825;BME280;16713;52.916;12.834;2023-05-23T07:28:52;100605.13;;;18.71;61.49
29825;BME280;16713;52.916;12.834;2023-05-23T07:31:19;100602.78;;;18.69;61.16
29825;BME280;16713;52.916;12.834;2023-05-23T07:33:45;100602.78;;;18.69;61.11
29825;BME280;16713;52.916;12.834;2023-05-23T07:36:12;100603.22;;;18.64;60.99
29825;BME280;16713;52.916;12.834;2023-05-23T07:38:38;100600.94;;;18.52;62.97
29825;BME280;16713;52.916;12.834;2023-05-23T07:41:05;100611.19;;;18.59;65.25
29825;BME280;16713;52.916;12.834;2023-05-23T07:43:38;100611.06;;;18.76;63.23
29825;BME280;16713;52.916;12.834;2023-05-23T07:46:04;100616.78;;;19.00;62.63
29825;BME280;16713;52.916;12.834;2023-05-23T07:48:32;100621.16;;;19.31;61.02
29825;BME280;16713;52.916;12.834;2023-05-23T07:50:58;100639.22;;;19.53;59.64
29825;BME280;16713;52.916;12.834;2023-05-23T07:53:25;100633.56;;;19.86;57.52
29825;BME280;16713;52.916;12.834;2023-05-23T07:55:51;100628.94;;;20.03;58.03
29825;BME280;16713;52.916;12.834;2023-05-23T07:58:18;100640.63;;;20.21;57.23
29825;BME280;16713;52.916;12.834;2023-05-23T08:00:44;100643.88;;;20.43;58.03
29825;BME280;16713;52.916;12.834;2023-05-23T08:03:11;100656.41;;;20.54;57.16
29825;BME280;16713;52.916;12.834;2023-05-23T08:05:38;100657.13;;;20.81;57.34
29825;BME280;16713;52.916;12.834;2023-05-23T08:08:05;100655.50;;;20.84;56.70
29825;BME280;16713;52.916;12.834;2023-05-23T08:10:31;100664.63;;;21.07;56.62
29825;BME280;16713;52.916;12.834;2023-05-23T08:12:58;100661.84;;;21.07;55.81
29825;BME280;16713;52.916;12.834;2023-05-23T08:15:26;100656.63;;;21.09;56.00
29825;BME280;16713;52.916;12.834;2023-05-23T08:17:53;100664.66;;;21.27;55.68
29825;BME280;16713;52.916;12.834;2023-05-23T08:20:22;100652.13;;;21.35;55.25
29825;BME280;16713;52.916;12.834;2023-05-23T08:22:59;100663.03;;;21.29;55.06
29825;BME280;16713;52.916;12.834;2023-05-23T08:25:27;100659.13;;;21.23;55.64
29825;BME280;16713;52.916;12.834;2023-05-23T08:27:57;100659.31;;;20.93;56.28
29825;BME280;16713;52.916;12.834;2023-05-23T08:30:26;100660.63;;;20.85;55.76
29825;BME280;16713;52.916;12.834;2023-05-23T08:32:53;100653.50;;;20.61;57.12
29825;BME280;16713;52.916;12.834;2023-05-23T08:35:21;100654.47;;;20.28;57.25
29825;BME280;16713;52.916;12.834;2023-05-23T08:37:47;100665.44;;;20.62;57.03
29825;BME280;16713;52.916;12.834;2023-05-23T08:40:19;100666.41;;;20.52;58.18
29825;BME280;16713;52.916;12.834;2023-05-23T08:42:48;100663.00;;;20.41;57.51
29825;BME280;16713;52.916;12.834;2023-05-23T08:45:15;100676.94;;;20.41;58.22
29825;BME280;16713;52.916;12.834;2023-05-23T08:47:43;100671.72;;;20.16;57.84
29825;BME280;16713;52.916;12.834;2023-05-23T08:50:15;100676.69;;;20.01;58.57
29825;BME280;16713;52.916;12.834;2023-05-23T08:52:53;100655.63;;;19.74;58.25
29825;BME280;16713;52.916;12.834;2023-05-23T08:55:26;100678.97;;;20.10;57.81
29825;BME280;16713;52.916;12.834;2023-05-23T08:57:57;100677.59;;;19.95;57.96
29825;BME280;16713;52.916;12.834;2023-05-23T09:00:29;100644.34;;;19.21;57.20
29825;BME280;16713;52.916;12.834;2023-05-23T09:02:56;100660.63;;;19.56;56.72
29825;BME280;16713;52.916;12.834;2023-05-23T09:05:22;100672.03;;;19.31;58.29
29825;BME280;16713;52.916;12.834;2023-05-23T09:07:49;100664.50;;;19.28;59.45
29825;BME280;16713;52.916;12.834;2023-05-23T09:10:20;100673.44;;;19.50;58.49
29825;BME280;16713;52.916;12.834;2023-05-23T09:12:47;100680.56;;;19.51;60.41
29825;BME280;16713;52.916;12.834;2023-05-23T09:15:13;100681.03;;;19.46;61.95
29825;BME280;16713;52.916;12.834;2023-05-23T09:17:40;100684.16;;;19.51;62.37
29825;BME280;16713;52.916;12.834;2023-05-23T09:20:14;100689.19;;;19.60;61.89
29825;BME280;16713;52.916;12.834;2023-05-23T09:22:46;100688.78;;;19.61;62.37
29825;BME280;16713;52.916;12.834;2023-05-23T09:25:13;100683.63;;;19.60;63.00
29825;BME280;16713;52.916;12.834;2023-05-23T09:27:42;100681.41;;;19.48;63.80
29825;BME280;16713;52.916;12.834;2023-05-23T09:30:13;100679.53;;;19.34;64.67
29825;BME280;16713;52.916;12.834;2023-05-23T09:32:40;100679.53;;;19.34;65.75
29825;BME280;16713;52.916;12.834;2023-05-23T09:35:07;100670.44;;;19.30;65.56
29825;BME280;16713;52.916;12.834;2023-05-23T09:37:42;100679.03;;;19.43;65.96
29825;BME280;16713;52.916;12.834;2023-05-23T09:40:12;100680.97;;;19.49;65.45
29825;BME280;16713;52.916;12.834;2023-05-23T09:42:47;100679.03;;;19.43;65.95
29825;BME280;16713;52.916;12.834;2023-05-23T09:45:15;100680.53;;;19.54;68.48
29825;BME280;16713;52.916;12.834;2023-05-23T09:47:49;100682.03;;;19.62;69.12
29825;BME280;16713;52.916;12.834;2023-05-23T09:50:19;100680.00;;;19.63;67.79
29825;BME280;16713;52.916;12.834;2023-05-23T09:52:46;100681.59;;;19.64;67.22
29825;BME280;16713;52.916;12.834;2023-05-23T09:55:21;100684.19;;;19.78;66.72
29825;BME280;16713;52.916;12.834;2023-05-23T09:57:52;100682.31;;;19.68;67.01
29825;BME280;16713;52.916;12.834;2023-05-23T10:00:19;100683.53;;;19.67;67.96
29825;BME280;16713;52.916;12.834;2023-05-23T10:03:07;100685.00;;;19.78;68.35
29825;BME280;16713;52.916;12.834;2023-05-23T10:05:46;100681.38;;;19.81;68.35
29825;BME280;16713;52.916;12.834;2023-05-23T10:13:42;100681.97;;;19.96;65.94
29825;BME280;16713;52.916;12.834;2023-05-23T10:16:22;100686.66;;;20.02;66.53
29825;BME280;16713;52.916;12.834;2023-05-23T10:18:56;100690.06;;;20.13;67.32
29825;BME280;16713;52.916;12.834;2023-05-23T10:21:28;100691.63;;;20.14;67.24
29825;BME280;16713;52.916;12.834;2023-05-23T10:23:58;100692.78;;;20.21;66.17
29825;BME280;16713;52.916;12.834;2023-05-23T10:26:26;100689.69;;;20.11;66.31
29825;BME280;16713;52.916;12.834;2023-05-23T10:28:54;100697.97;;;20.18;65.99
29825;BME280;16713;52.916;12.834;2023-05-23T10:31:23;100692.84;;;20.13;65.49
29825;BME280;16713;52.916;12.834;2023-05-23T10:34:07;100696.38;;;20.17;65.10
29825;BME280;16713;52.916;12.834;2023-05-23T10:42:02;100693.19;;;20.19;64.14
29825;BME280;16713;52.916;12.834;2023-05-23T10:44:30;100694.31;;;20.25;63.78
29825;BME280;16713;52.916;12.834;2023-05-23T10:46:58;100695.50;;;20.24;64.26
29825;BME280;16713;52.916;12.834;2023-05-23T10:49:43;100689.22;;;20.16;64.44
29825;BME280;16713;52.916;12.834;2023-05-23T10:52:15;100698.50;;;20.06;65.08
29825;BME280;16713;52.916;12.834;2023-05-23T10:54:48;100692.59;;;20.04;63.88
29825;BME280;16713;52.916;12.834;2023-05-23T10:57:17;100691.94;;;19.93;64.63
29825;BME280;16713;52.916;12.834;2023-05-23T10:59:45;100694.16;;;20.05;65.25
29825;BME280;16713;52.916;12.834;2023-05-23T11:02:14;100702.81;;;20.11;64.34
29825;BME280;16713;52.916;12.834;2023-05-23T11:04:41;100696.47;;;20.10;64.00
29825;BME280;16713;52.916;12.834;2023-05-23T11:07:30;100693.72;;;20.07;64.96
29825;BME280;16713;52.916;12.834;2023-05-23T11:10:09;100692.41;;;19.88;64.69
29825;BME280;16713;52.916;12.834;2023-05-23T11:12:40;100685.25;;;19.57;66.47
29825;BME280;16713;52.916;12.834;2023-05-23T11:17:55;100696.88;;;19.79;67.03
29825;BME280;16713;52.916;12.834;2023-05-23T11:20:25;100697.81;;;19.72;66.79
29825;BME280;16713;52.916;12.834;2023-05-23T11:22:58;100703.69;;;19.78;67.74
29825;BME280;16713;52.916;12.834;2023-05-23T11:25:41;100709.94;;;19.85;67.10
29825;BME280;16713;52.916;12.834;2023-05-23T11:28:12;100712.53;;;19.69;67.32
29825;BME280;16713;52.916;12.834;2023-05-23T11:30:39;100703.53;;;19.58;67.96
29825;BME280;16713;52.916;12.834;2023-05-23T11:33:08;100703.56;;;19.55;66.98
29825;BME280;16713;52.916;12.834;2023-05-23T11:35:43;100695.06;;;19.32;67.30
29825;BME280;16713;52.916;12.834;2023-05-23T11:38:10;100712.75;;;19.52;67.51
29825;BME280;16713;52.916;12.834;2023-05-23T11:40:38;100708.06;;;19.42;67.26
29825;BME280;16713;52.916;12.834;2023-05-23T11:43:09;100707.31;;;19.38;67.21
29825;BME280;16713;52.916;12.834;2023-05-23T11:45:37;100704.13;;;19.39;67.53
29825;BME280;16713;52.916;12.834;2023-05-23T11:48:09;100709.59;;;19.50;67.09
29825;BME280;16713;52.916;12.834;2023-05-23T11:50:49;100716.03;;;19.40;67.14
29825;BME280;16713;52.916;12.834;2023-05-23T11:53:17;100712.06;;;19.37;67.29
29825;BME280;16713;52.916;12.834;2023-05-23T11:55:54;100714.41;;;19.42;66.99
29825;BME280;16713;52.916;12.834;2023-05-23T11:58:24;100716.50;;;19.35;66.36
29825;BME280;16713;52.916;12.834;2023-05-23T12:00:51;100722.13;;;19.28;66.85
29825;BME280;16713;52.916;12.834;2023-05-23T12:03:20;100724.56;;;19.22;67.11
29825;BME280;16713;52.916;12.834;2023-05-23T12:05:47;100725.47;;;19.12;67.22
29825;BME280;16713;52.916;12.834;2023-05-23T12:08:14;100736.63;;;19.09;68.13
29825;BME280;16713;52.916;12.834;2023-05-23T12:10:56;100729.16;;;18.99;68.46
29825;BME280;16713;52.916;12.834;2023-05-23T12:13:23;100734.78;;;18.95;68.82
29825;BME280;16713;52.916;12.834;2023-05-23T12:15:55;100739.56;;;18.91;68.08
29825;BME280;16713;52.916;12.834;2023-05-23T12:18:27;100736.84;;;18.84;68.44
29825;BME280;16713;52.916;12.834;2023-05-23T12:20:59;100741.69;;;18.73;68.75
29825;BME280;16713;52.916;12.834;2023-05-23T12:23:27;100737.72;;;18.70;68.85
29825;BME280;16713;52.916;12.834;2023-05-23T12:25:54;100733.00;;;18.64;68.72
29825;BME280;16713;52.916;12.834;2023-05-23T12:28:35;100745.34;;;18.59;68.48
29825;BME280;16713;52.916;12.834;2023-05-23T12:31:21;100729.88;;;18.58;69.16
29825;BME280;16713;52.916;12.834;2023-05-23T12:33:51;100735.47;;;18.55;69.00
29825;BME280;16713;52.916;12.834;2023-05-23T12:36:23;100737.47;;;18.51;69.18
29825;BME280;16713;52.916;12.834;2023-05-23T12:38:50;100737.91;;;18.42;69.40
29825;BME280;16713;52.916;12.834;2023-05-23T12:41:18;100737.06;;;18.52;69.14
29825;BME280;16713;52.916;12.834;2023-05-23T12:43:50;100737.06;;;18.49;70.17
29825;BME280;16713;52.916;12.834;2023-05-23T12:46:17;100737.91;;;18.46;69.62
29825;BME280;16713;52.916;12.834;2023-05-23T12:48:43;100740.34;;;18.40;69.75
29825;BME280;16713;52.916;12.834;2023-05-23T12:51:10;100736.31;;;18.48;69.15
29825;BME280;16713;52.916;12.834;2023-05-23T12:53:36;100730.03;;;18.37;69.34
29825;BME280;16713;52.916;12.834;2023-05-23T12:56:03;100740.22;;;18.54;69.44
29825;BME280;16713;52.916;12.834;2023-05-23T12:58:30;100737.88;;;18.49;70.02
29825;BME280;16713;52.916;12.834;2023-05-23T13:00:57;100751.31;;;18.58;70.17
29825;BME280;16713;52.916;12.834;2023-05-23T13:03:24;100735.22;;;18.32;69.89